Latest Weather Observations for Moruya Airport

IDN60901

Issued at 2:31 am EDT Thursday 20 December 2018 (issued every 10 minutes, with the page automatically refreshed every 10 minutes)

About weather observations | Map of Canberra area stations | Latest observations for Canberra area | Other Formats
Station Details ID: 069148 Name: MORUYA AIRPORT AWS Lat: -35.90 Lon: 150.14 Height: 4.0 m
Data from the previous 72 hours. | See also: Recent months at Moruya Airport
Date/Time
EDT
Temp
°C
App
Temp
°C
Dew
Point
°C
Rel
Hum
%
Delta-T
°C
Wind Press
QNH
hPa
Press
MSL
hPa
Rain since
9am
mm
Dir  Spd
km/h
Gust
km/h
Spd
kts
Gust
kts
20/02:30am 19.1 20.5 17.9 93 0.7 N 7 11 4 6 1007.6 1007.5 0.0
20/02:27am 19.1 20.2 17.9 93 0.7 N 9 13 5 7 1007.6 1007.5 0.0
20/02:00am 19.0 20.3 17.5 91 0.9 NNE 7 11 4 6 1008.2 1008.1 0.0
20/01:58am 19.1 20.4 17.6 91 0.9 NNE 7 11 4 6 1008.3 1008.2 0.0
20/01:30am 19.7 20.9 18.2 91 0.9 NNW 9 15 5 8 1009.0 1008.9 0.0
20/01:00am 19.8 20.2 18.1 90 1.1 N 13 17 7 9 1009.4 1009.3 0.0
20/12:34am 19.9 21.2 18.4 91 0.9 N 9 13 5 7 1010.0 1009.9 0.0
20/12:30am 20.0 21.3 18.5 91 0.9 N 9 13 5 7 1010.0 1009.9 0.0
20/12:17am 19.9 21.2 18.4 91 0.9 NNE 9 13 5 7 1010.0 1009.9 0.0
20/12:00am 20.1 21.9 18.4 90 1.1 N 6 9 3 5 1010.4 1010.3 0.0
 
Date/Time
EDT
Temp
°C
App
Temp
°C
Dew
Point
°C
Rel
Hum
%
Delta-T
°C
Wind Press
QNH
hPa
Press
MSL
hPa
Rain since
9am
mm
Dir  Spd
km/h
Gust
km/h
Spd
kts
Gust
kts
19/11:30pm 20.0 20.9 18.5 91 0.9 N 11 15 6 8 1010.8 1010.7 0.0
19/11:24pm 20.0 20.9 18.5 91 0.9 N 11 15 6 8 1010.7 1010.6 0.0
19/11:00pm 20.0 21.8 18.3 90 1.1 NNE 6 7 3 4 1011.1 1011.0 0.0
19/10:59pm 20.1 21.9 18.4 90 1.1 NNE 6 7 3 4 1011.2 1011.1 0.0
19/10:30pm 20.3 22.5 18.4 89 1.2 N 4 7 2 4 1011.9 1011.8 0.0
19/10:00pm 20.3 22.5 18.4 89 1.2 NNW 4 7 2 4 1011.9 1011.8 0.0
19/09:30pm 20.4 22.3 18.5 89 1.2 NNW 6 9 3 5 1011.7 1011.6 0.0
19/09:00pm 20.4 22.7 18.5 89 1.2 NNW 4 7 2 4 1011.9 1011.8 0.0
19/08:57pm 20.4 23.0 18.5 89 1.2 NNW 2 7 1 4 1012.0 1011.9 0.0
19/08:30pm 20.6 23.6 18.5 88 1.3 CALM 0 0 0 0 1012.0 1011.9 0.0
19/08:00pm 20.6 23.6 18.4 87 1.4 CALM 0 0 0 0 1011.5 1011.4 0.0
19/07:47pm 20.7 23.6 18.3 86 1.5 CALM 0 0 0 0 1011.5 1011.4 0.0
19/07:41pm 20.9 23.9 18.5 86 1.5 CALM 0 0 0 0 1011.5 1011.4 0.0
19/07:30pm 20.9 23.2 18.5 86 1.5 N 4 9 2 5 1011.3 1011.2 0.0
19/07:21pm 20.8 22.1 18.4 86 1.5 NNE 9 13 5 7 1011.1 1011.0 0.0
19/07:00pm 21.0 22.4 18.6 86 1.5 NNE 9 13 5 7 1011.1 1011.0 0.0
19/06:30pm 20.9 22.1 18.3 85 1.6 NNE 9 13 5 7 1011.2 1011.1 0.0
19/06:00pm 21.0 22.4 18.6 86 1.5 NE 9 11 5 6 1011.5 1011.4 0.0
19/05:30pm 21.0 21.4 18.2 84 1.7 NE 13 15 7 8 1011.2 1011.1 0.0
19/05:00pm 20.9 22.2 18.5 86 1.5 ENE 9 13 5 7 1011.5 1011.4 0.0
19/04:30pm 20.7 22.4 18.6 88 1.3 E 7 9 4 5 1012.1 1012.0 0.0
19/04:19pm 20.6 22.3 18.5 88 1.3 ENE 7 9 4 5 1012.1 1012.0 0.0
19/04:00pm 20.6 21.9 18.5 88 1.3 E 9 11 5 6 1012.3 1012.2 0.0
19/03:41pm 20.5 21.7 18.3 87 1.4 E 9 13 5 7 1012.5 1012.4 0.0
19/03:38pm 20.5 21.7 18.3 87 1.4 E 9 13 5 7 1012.6 1012.5 0.0
19/03:30pm 20.6 21.9 18.4 87 1.4 E 9 13 5 7 1012.4 1012.3 0.0
19/03:25pm 20.9 22.4 18.8 88 1.3 ENE 9 13 5 7 1012.6 1012.5 0.0
19/03:00pm 20.3 21.1 18.1 87 1.4 ENE 11 13 6 7 1012.9 1012.8 0.0
19/02:30pm 20.5 20.6 18.3 87 1.4 ENE 15 20 8 11 1012.9 1012.8 0.0
19/02:00pm 19.9 20.9 17.7 87 1.4 ENE 9 11 5 6 1013.7 1013.6 0.0
19/01:50pm 20.1 20.7 17.7 86 1.5 ENE 11 15 6 8 1013.8 1013.7 0.0
19/01:30pm 20.4 21.0 17.8 85 1.6 NE 11 15 6 8 1013.7 1013.6 0.0
19/01:25pm 20.5 21.4 18.3 87 1.4 NE 11 13 6 7 1013.8 1013.7 0.0
19/01:00pm 19.7 20.9 18.2 91 0.9 NE 9 11 5 6 1014.2 1014.1 0.0
19/12:55pm 19.5 20.6 18.0 91 0.9 NE 9 11 5 6 1014.3 1014.2 0.0
19/12:53pm 19.7 20.9 18.2 91 0.9 NE 9 11 5 6 1014.3 1014.2 0.0
19/12:30pm 19.5 20.5 17.8 90 1.0 NE 9 11 5 6 1014.5 1014.4 0.0
19/12:22pm 19.5 20.9 17.8 90 1.0 NE 7 11 4 6 1014.5 1014.4 0.0
19/12:17pm 19.5 20.9 17.8 90 1.0 NE 7 9 4 5 1014.7 1014.6 0.0
19/12:00pm 19.7 21.3 17.8 89 1.2 ENE 6 7 3 4 1014.9 1014.8 0.0
19/11:30am 19.6 22.4 17.9 90 1.0 CALM 0 0 0 0 1015.0 1014.9 0.0
19/11:00am 19.3 20.7 17.8 91 0.9 WSW 7 9 4 5 1015.3 1015.2 0.0
19/10:54am 19.4 21.1 18.1 92 0.8 SW 6 7 3 4 1015.2 1015.1 0.0
19/10:30am 18.9 20.3 17.7 93 0.7 WNW 7 11 4 6 1015.3 1015.2 0.0
19/10:00am 18.6 19.9 17.6 94 0.6 WNW 7 9 4 5 1015.5 1015.4 0.0
19/09:30am 18.2 19.3 17.2 94 0.6 WSW 7 11 4 6 1015.6 1015.5 0.0
19/09:00am 18.2 19.6 17.4 95 0.5 W 6 7 3 4 1015.7 1015.6 4.0
19/08:51am 18.1 19.3 17.3 95 0.5 W 7 9 4 5 1015.6 1015.5 4.0
19/08:30am 17.9 19.0 17.1 95 0.5 WSW 7 11 4 6 1015.8 1015.7 3.8
19/08:23am 18.0 19.1 17.2 95 0.5 WSW 7 11 4 6 1016.1 1016.0 3.8
19/08:00am 17.8 18.9 17.0 95 0.5 WSW 7 11 4 6 1015.8 1015.7 3.8
19/07:30am 17.6 17.9 17.0 96 0.4 WSW 11 15 6 8 1015.4 1015.3 3.8
19/07:00am 17.5 18.5 16.9 96 0.4 WSW 7 11 4 6 1015.3 1015.2 3.6
19/06:47am 17.4 18.0 16.8 96 0.4 W 9 11 5 6 1015.4 1015.3 3.6
19/06:46am 17.4 18.0 16.8 96 0.4 W 9 11 5 6 1015.4 1015.3 3.6
19/06:45am 17.4 18.0 16.8 96 0.4 W 9 11 5 6 1015.4 1015.3 3.6
19/06:30am 17.4 18.4 16.8 96 0.4 WSW 7 11 4 6 1015.1 1015.0 3.6
19/06:00am 17.3 17.9 16.7 96 0.4 W 9 13 5 7 1015.0 1014.9 3.6
19/05:43am 17.2 17.7 16.6 96 0.4 WSW 9 11 5 6 1014.8 1014.7 3.6
19/05:31am 17.2 17.7 16.6 96 0.4 WSW 9 11 5 6 1014.7 1014.6 3.4
19/05:30am 17.2 17.7 16.6 96 0.4 WSW 9 11 5 6 1014.7 1014.6 3.4
19/05:18am 17.2 17.7 16.6 96 0.4 WSW 9 13 5 7 1014.6 1014.5 3.4
19/05:09am 17.2 17.7 16.6 96 0.4 WSW 9 13 5 7 1014.6 1014.5 3.4
19/05:00am 17.1 18.0 16.5 96 0.4 WSW 7 11 4 6 1014.7 1014.6 3.4
19/04:51am 17.1 17.5 16.3 95 0.5 WSW 9 13 5 7 1014.7 1014.6 3.4
19/04:50am 17.1 17.5 16.3 95 0.5 WSW 9 13 5 7 1014.7 1014.6 3.4
19/04:44am 17.2 17.6 16.4 95 0.5 SW 9 13 5 7 1014.8 1014.7 3.4
19/04:30am 17.2 17.3 16.4 95 0.5 SW 11 13 6 7 1014.6 1014.5 3.4
19/04:14am 17.1 17.9 16.3 95 0.5 WSW 7 11 4 6 1014.6 1014.5 3.2
19/04:00am 17.1 17.5 16.3 95 0.5 WSW 9 11 5 6 1014.7 1014.6 3.2
19/03:59am 17.1 17.5 16.3 95 0.5 WSW 9 11 5 6 1014.7 1014.6 3.2
19/03:52am 17.0 17.4 16.2 95 0.5 WSW 9 13 5 7 1014.8 1014.7 3.2
19/03:30am 17.0 17.4 16.2 95 0.5 W 9 11 5 6 1014.9 1014.8 3.2
19/03:00am 17.2 17.9 16.2 94 0.6 WSW 7 11 4 6 1014.9 1014.8 2.8
19/02:30am 17.3 17.7 16.3 94 0.6 WSW 9 15 5 8 1015.3 1015.2 2.8
19/02:00am 17.3 17.7 16.2 93 0.7 WSW 9 13 5 7 1015.5 1015.4 2.6
19/01:45am 17.5 18.3 16.4 93 0.7 WSW 7 11 4 6 1016.0 1015.9 2.6
19/01:30am 17.5 18.9 16.5 94 0.6 W 4 7 2 4 1016.0 1015.9 2.6
19/01:10am 17.6 18.5 16.6 94 0.6 WSW 7 9 4 5 1016.2 1016.1 2.6
19/01:00am 17.6 18.5 16.5 93 0.7 WSW 7 11 4 6 1016.4 1016.3 2.6
19/12:34am 17.8 18.7 16.7 93 0.7 WSW 7 11 4 6 1016.6 1016.5 2.4
19/12:30am 17.8 18.7 16.7 93 0.7 WSW 7 9 4 5 1016.7 1016.6 2.4
19/12:12am 17.8 19.3 16.7 93 0.7 WSW 4 9 2 5 1016.7 1016.6 2.4
19/12:00am 17.7 18.8 16.6 93 0.7 WSW 6 9 3 5 1016.7 1016.6 2.4
 
Date/Time
EDT
Temp
°C
App
Temp
°C
Dew
Point
°C
Rel
Hum
%
Delta-T
°C
Wind Press
QNH
hPa
Press
MSL
hPa
Rain since
9am
mm
Dir  Spd
km/h
Gust
km/h
Spd
kts
Gust
kts
18/11:44pm 17.7 18.6 16.6 93 0.7 W 7 11 4 6 1017.1 1017.0 2.4
18/11:30pm 17.7 18.2 16.6 93 0.7 W 9 13 5 7 1017.2 1017.1 2.4
18/11:00pm 17.9 19.1 16.8 93 0.7 WSW 6 9 3 5 1017.1 1017.0 2.4
18/10:51pm 18.0 19.2 16.9 93 0.7 WSW 6 9 3 5 1017.1 1017.0 2.4
18/10:30pm 18.1 19.2 17.1 94 0.6 SW 7 9 4 5 1016.9 1016.8 2.4
18/10:00pm 18.0 19.1 17.0 94 0.6 W 7 9 4 5 1017.0 1016.9 2.4
18/09:30pm 18.0 19.1 17.0 94 0.6 WNW 7 9 4 5 1017.0 1016.9 2.4
18/09:26pm 18.1 19.2 17.1 94 0.6 WNW 7 9 4 5 1017.0 1016.9 2.4
18/09:09pm 18.1 19.2 17.1 94 0.6 W 7 11 4 6 1017.0 1016.9 2.4
18/09:00pm 18.1 19.2 17.1 94 0.6 W 7 11 4 6 1017.0 1016.9 2.4
18/08:30pm 18.2 19.3 17.2 94 0.6 W 7 11 4 6 1016.9 1016.8 2.4
18/08:27pm 18.1 18.8 17.1 94 0.6 W 9 11 5 6 1016.9 1016.8 2.4
18/08:01pm 18.3 19.1 17.3 94 0.6 WSW 9 13 5 7 1016.4 1016.3 2.2
18/08:00pm 18.2 19.0 17.2 94 0.6 WSW 9 13 5 7 1016.4 1016.3 2.2
18/07:43pm 18.4 18.5 17.4 94 0.6 SW 13 15 7 8 1016.4 1016.3 2.2
18/07:30pm 18.7 19.3 17.7 94 0.6 SSW 11 15 6 8 1016.3 1016.2 2.2
18/07:21pm 18.6 19.1 17.4 93 0.7 SSW 11 15 6 8 1016.1 1016.0 2.2
18/07:00pm 18.6 18.8 17.6 94 0.6 SSW 13 17 7 9 1015.9 1015.8 2.2
18/06:44pm 18.7 18.5 17.7 94 0.6 SSW 15 20 8 11 1015.7 1015.6 2.2
18/06:30pm 18.9 19.2 17.9 94 0.6 S 13 17 7 9 1015.4 1015.3 2.2
18/06:00pm 19.0 19.3 18.0 94 0.6 S 13 17 7 9 1015.5 1015.4 2.0
18/05:58pm 18.9 19.2 17.9 94 0.6 S 13 17 7 9 1015.4 1015.3 2.0
18/05:30pm 19.1 19.9 18.1 94 0.6 SSW 11 13 6 7 1015.3 1015.2 2.0
18/05:00pm 19.2 19.9 17.9 92 0.8 SSW 11 15 6 8 1015.1 1015.0 1.8
18/04:50pm 19.5 19.8 18.0 91 0.9 SSE 13 19 7 10 1014.9 1014.8 1.8
18/04:46pm 19.4 20.1 17.9 91 0.9 SSE 11 15 6 8 1014.8 1014.7 1.8
18/04:30pm 19.4 20.5 18.1 92 0.8 SE 9 15 5 8 1014.9 1014.8 1.6
18/04:00pm 19.3 20.4 18.0 92 0.8 SE 9 13 5 7 1014.9 1014.8 1.4
18/03:30pm 19.6 19.9 17.9 90 1.0 SE 13 20 7 11 1014.9 1014.8 0.6
18/03:12pm 20.1 20.8 17.9 87 1.4 SE 11 15 6 8 1014.9 1014.8 0.0
18/03:05pm 20.3 21.3 17.7 85 1.6 ESE 9 15 5 8 1014.9 1014.8 0.0
18/03:00pm 20.4 21.3 17.6 84 1.7 SE 9 15 5 8 1014.9 1014.8 0.0
18/02:30pm 21.0 21.0 17.2 79 2.3 ESE 13 19 7 10 1014.8 1014.7 0.0
18/02:00pm 20.9 20.9 17.3 80 2.2 ESE 13 17 7 9 1014.6 1014.5 0.0
18/01:30pm 21.0 21.6 17.6 81 2.1 E 11 15 6 8 1014.6 1014.5 0.0
18/01:00pm 21.4 21.7 18.0 81 2.1 E 13 17 7 9 1014.7 1014.6 0.0
18/12:30pm 21.7 22.3 17.7 78 2.5 E 11 13 6 7 1015.0 1014.9 0.0
18/12:00pm 21.8 22.2 18.2 80 2.2 SE 13 15 7 8 1015.1 1015.0 0.0
18/11:30am 21.4 21.9 17.4 78 2.5 SE 11 15 6 8 1015.3 1015.2 0.0
18/11:00am 21.6 21.7 17.4 77 2.6 SE 13 17 7 9 1015.2 1015.1 0.0
18/10:30am 21.7 22.1 17.3 76 2.7 SE 11 13 6 7 1015.3 1015.2 0.0
18/10:00am 22.1 23.1 17.7 76 2.7 ESE 9 15 5 8 1015.2 1015.1 0.0
18/09:30am 21.7 22.5 17.3 76 2.7 E 9 13 5 7 1015.2 1015.1 0.0
18/09:00am 21.3 23.0 17.1 77 2.6 SSE 4 7 2 4 1015.4 1015.3 0.2
18/08:30am 20.8 21.6 16.4 76 2.7 SW 7 13 4 7 1015.4 1015.3 0.2
18/08:00am 20.0 20.9 16.6 81 2.0 WSW 7 11 4 6 1015.2 1015.1 0.2
18/07:30am 19.1 20.0 16.7 86 1.4 SW 7 9 4 5 1014.9 1014.8 0.2
18/07:00am 18.4 20.9 17.2 93 0.7 CALM 0 0 0 0 1014.4 1014.3 0.2
18/06:30am 17.3 19.5 16.5 95 0.5 CALM 0 0 0 0 1014.0 1013.9 0.2
18/06:00am 16.3 18.0 15.3 94 0.6 CALM 0 0 0 0 1013.8 1013.7 0.2
18/05:30am 16.5 18.3 15.5 94 0.6 CALM 0 0 0 0 1013.4 1013.3 0.2
18/05:00am 16.2 17.1 15.1 93 0.6 W 4 6 2 3 1013.3 1013.2 0.2
18/04:30am 16.7 17.2 15.6 93 0.6 WSW 7 9 4 5 1013.2 1013.1 0.2
18/04:00am 16.7 17.4 15.6 93 0.6 WSW 6 9 3 5 1013.0 1012.9 0.2
18/03:30am 16.9 18.8 15.8 93 0.6 CALM 0 0 0 0 1012.8 1012.7 0.2
18/03:00am 17.3 19.3 16.0 92 0.8 CALM 0 0 0 0 1012.6 1012.5 0.2
18/02:30am 17.8 19.8 16.1 90 1.0 CALM 0 0 0 0 1012.6 1012.5 0.2
18/02:00am 18.4 20.6 16.4 88 1.2 CALM 0 0 0 0 1013.0 1012.9 0.2
18/01:30am 19.3 21.7 17.1 87 1.3 CALM 0 0 0 0 1013.2 1013.1 0.2
18/01:18am 19.5 21.9 17.1 86 1.5 CALM 0 0 0 0 1013.2 1013.1 0.2
18/01:00am 19.7 22.2 17.3 86 1.5 CALM 0 0 0 0 1013.3 1013.2 0.2
18/12:33am 20.2 22.8 17.4 84 1.7 CALM 0 0 0 0 1013.6 1013.5 0.2
18/12:30am 20.4 23.0 17.6 84 1.7 CALM 0 0 0 0 1013.6 1013.5 0.2
18/12:00am 20.3 22.7 17.1 82 1.9 CALM 0 0 0 0 1014.0 1013.9 0.2
 
Date/Time
EDT
Temp
°C
App
Temp
°C
Dew
Point
°C
Rel
Hum
%
Delta-T
°C
Wind Press
QNH
hPa
Press
MSL
hPa
Rain since
9am
mm
Dir  Spd
km/h
Gust
km/h
Spd
kts
Gust
kts
17/11:30pm 20.6 23.0 17.0 80 2.2 CALM 0 0 0 0 1014.2 1014.1 0.2
17/11:00pm 20.9 23.3 17.1 79 2.3 CALM 0 0 0 0 1014.2 1014.1 0.2
17/10:30pm 21.6 22.7 16.6 73 3.0 S 6 7 3 4 1014.2 1014.1 0.2
17/10:00pm 21.6 22.5 16.6 73 3.0 S 7 9 4 5 1014.0 1013.9 0.2
17/09:30pm 21.7 22.7 16.9 74 2.9 S 7 11 4 6 1013.7 1013.6 0.2
17/09:00pm 21.8 22.7 16.7 73 3.1 SSE 7 9 4 5 1013.4 1013.3 0.2
17/08:30pm 22.1 23.2 17.2 74 3.0 SSE 7 9 4 5 1013.0 1012.9 0.2
17/08:00pm 22.2 22.8 16.9 72 3.2 SSE 9 13 5 7 1012.4 1012.3 0.2
17/07:30pm 22.4 23.2 17.3 73 3.1 SSE 9 13 5 7 1011.9 1011.8 0.2
17/07:00pm 22.7 23.1 17.2 71 3.4 SSE 11 17 6 9 1011.5 1011.4 0.2
17/06:30pm 23.0 23.0 17.2 70 3.6 SSE 13 17 7 9 1011.1 1011.0 0.2
17/06:00pm 23.2 22.9 16.5 66 4.1 SSE 13 17 7 9 1010.6 1010.5 0.2
17/05:30pm 23.4 22.8 16.7 66 4.1 SE 15 20 8 11 1010.3 1010.2 0.2
17/05:00pm 23.3 22.7 16.6 66 4.1 SSE 15 20 8 11 1010.1 1010.0 0.2
17/04:30pm 23.7 23.0 16.5 64 4.4 SSE 15 22 8 12 1010.0 1009.9 0.2
17/04:00pm 24.8 24.3 17.8 65 4.4 SSE 17 22 9 12 1009.9 1009.8 0.2
17/03:30pm 24.7 23.7 16.7 61 4.9 SE 17 20 9 11 1009.8 1009.7 0.2
17/03:00pm 25.0 25.0 18.2 66 4.3 SE 15 20 8 11 1009.4 1009.3 0.2
17/02:30pm 24.9 25.0 18.4 67 4.1 ESE 15 20 8 11 1009.4 1009.3 0.2
17/02:00pm 24.8 25.0 18.5 68 4.0 ESE 15 20 8 11 1009.2 1009.1 0.2
17/01:30pm 23.9 24.4 19.2 75 3.0 SE 15 20 8 11 1009.2 1009.1 0.2
17/01:00pm 23.4 23.8 19.1 77 2.7 SE 15 19 8 10 1009.1 1009.0 0.2
17/12:30pm 23.1 22.9 19.3 79 2.4 SE 19 24 10 13 1009.2 1009.1 0.2
17/12:00pm 23.0 22.8 18.5 76 2.8 SE 17 22 9 12 1009.1 1009.0 0.2
17/11:30am 22.6 22.0 17.5 73 3.2 SE 17 22 9 12 1009.2 1009.1 0.2
17/11:00am 22.7 22.5 17.6 73 3.2 SE 15 19 8 10 1009.3 1009.2 0.2
17/10:30am 22.5 21.5 16.5 69 3.6 SE 17 20 9 11 1009.3 1009.2 0.0
17/10:00am 22.2 22.8 17.8 76 2.7 E 11 13 6 7 1009.3 1009.2 0.0
17/09:30am 22.7 23.2 16.5 68 3.8 SE 9 13 5 7 1009.4 1009.3 0.0
17/09:00am 22.3 23.2 16.6 70 3.5 E 7 11 4 6 1009.6 1009.5 0.4
17/08:30am 21.6 23.9 16.8 74 2.9 CALM 0 6 0 3 1009.6 1009.5 0.4
17/08:00am 20.2 20.9 16.2 78 2.4 SW 7 9 4 5 1009.4 1009.3 0.4
17/07:30am 19.0 20.2 16.0 83 1.8 SW 4 9 2 5 1008.9 1008.8 0.4
17/07:00am 17.9 19.6 16.1 89 1.1 W 2 9 1 5 1008.5 1008.4 0.4
17/06:30am 16.9 17.6 15.6 92 0.8 SW 6 7 3 4 1008.1 1008.0 0.4
17/06:00am 16.2 16.5 15.1 93 0.6 W 7 9 4 5 1008.0 1007.9 0.4
17/05:30am 16.4 16.7 15.1 92 0.8 W 7 11 4 6 1007.8 1007.7 0.4
17/05:00am 16.2 16.1 14.9 92 0.8 W 9 13 5 7 1007.7 1007.6 0.4
17/04:30am 16.2 16.5 14.4 89 1.0 W 6 7 3 4 1007.6 1007.5 0.4
17/04:00am 17.2 17.0 14.7 85 1.4 WSW 9 13 5 7 1007.6 1007.5 0.4
17/03:30am 17.6 17.0 14.7 83 1.7 WSW 11 15 6 8 1007.4 1007.3 0.4
17/03:00am 17.7 17.1 14.6 82 1.8 WSW 11 15 6 8 1007.2 1007.1 0.4

Latest Capital City Observations: Canberra | Sydney | Melbourne | Brisbane | Adelaide | Perth | Hobart | Darwin

Other Formats:

Comma delimited format used in spreadsheet applications
http://www.bom.gov.au/fwo/IDN60903/IDN60903.95937.axf

JavaScript Object Notation format (JSON) in row-major order
http://www.bom.gov.au/fwo/IDN60903/IDN60903.95937.json